createdAt,value
2022-12-26T00:00:08.107Z,2.03
2022-12-26T00:02:35.370Z,2.16
2022-12-26T00:05:02.410Z,2.27
2022-12-26T00:07:29.449Z,2.32
2022-12-26T00:09:56.466Z,2.35
2022-12-26T00:12:23.331Z,2.34
2022-12-26T00:14:50.381Z,2.33
2022-12-26T00:17:17.284Z,2.30
2022-12-26T00:19:44.375Z,2.12
2022-12-26T00:22:11.210Z,1.78
2022-12-26T00:24:38.010Z,1.63
2022-12-26T00:27:04.874Z,1.54
2022-12-26T00:29:31.856Z,1.64
2022-12-26T00:31:58.932Z,1.79
2022-12-26T00:34:25.813Z,1.80
2022-12-26T00:36:52.728Z,1.52
2022-12-26T00:39:19.717Z,1.68
2022-12-26T00:41:46.662Z,1.77
2022-12-26T00:44:13.557Z,1.73
2022-12-26T00:46:40.504Z,1.68
2022-12-26T00:49:07.493Z,1.73
2022-12-26T00:51:34.557Z,1.67
2022-12-26T00:54:01.451Z,1.67
2022-12-26T00:56:28.359Z,1.73
2022-12-26T00:58:55.362Z,1.77
2022-12-26T01:01:23.584Z,1.79
2022-12-26T01:03:51.686Z,1.84
2022-12-26T01:06:18.966Z,1.93
2022-12-26T01:08:46.013Z,1.94
2022-12-26T01:11:16.302Z,1.96
2022-12-26T01:13:44.265Z,1.97
2022-12-26T01:16:11.468Z,1.99
2022-12-26T01:18:38.467Z,1.91
2022-12-26T01:21:11.021Z,1.85
2022-12-26T01:23:37.936Z,1.75
2022-12-26T01:26:18.900Z,1.83
2022-12-26T01:28:50.281Z,1.81
2022-12-26T01:31:18.126Z,1.81
2022-12-26T01:33:45.179Z,1.92
2022-12-26T01:36:12.460Z,1.89
2022-12-26T01:38:39.239Z,1.96
2022-12-26T01:41:06.670Z,1.97
2022-12-26T01:43:48.868Z,1.87
2022-12-26T01:46:18.012Z,1.89
2022-12-26T01:48:46.191Z,1.83
2022-12-26T01:51:15.102Z,1.80
2022-12-26T01:53:50.373Z,1.69
2022-12-26T01:56:26.422Z,1.66
2022-12-26T01:59:02.782Z,1.72
2022-12-26T02:01:33.684Z,1.71
2022-12-26T02:04:04.961Z,1.68
2022-12-26T02:06:33.524Z,1.60
2022-12-26T02:09:00.811Z,1.53
2022-12-26T02:11:35.473Z,1.54
2022-12-26T02:14:07.014Z,1.52
2022-12-26T02:16:35.907Z,1.52
2022-12-26T02:19:04.370Z,1.48
2022-12-26T02:22:02.116Z,1.46
2022-12-26T02:25:02.364Z,1.59
2022-12-26T02:27:46.608Z,1.62
2022-12-26T02:30:31.920Z,1.79
2022-12-26T02:33:17.258Z,1.86
2022-12-26T02:35:53.449Z,1.87
2022-12-26T02:38:57.303Z,1.96
2022-12-26T02:41:34.339Z,2.01
2022-12-26T02:44:13.034Z,2.06
2022-12-26T02:46:47.663Z,2.13
2022-12-26T02:49:33.117Z,1.53
2022-12-26T02:52:24.095Z,1.32
2022-12-26T02:55:11.887Z,1.56
2022-12-26T02:57:45.015Z,1.69
2022-12-26T03:00:18.025Z,1.84
2022-12-26T03:02:53.795Z,1.91
2022-12-26T03:05:29.123Z,2.00
2022-12-26T03:07:57.137Z,1.89
2022-12-26T03:10:29.159Z,1.81
2022-12-26T03:13:01.637Z,1.74
2022-12-26T03:15:31.804Z,1.61
2022-12-26T03:18:06.673Z,1.65
2022-12-26T03:20:36.211Z,1.56
2022-12-26T03:23:08.140Z,1.61
2022-12-26T03:25:48.876Z,1.51
2022-12-26T03:28:16.497Z,1.57
2022-12-26T03:30:43.508Z,1.62
2022-12-26T03:33:10.816Z,1.61
2022-12-26T03:35:37.763Z,1.53
2022-12-26T03:38:16.372Z,1.65
2022-12-26T03:41:10.252Z,1.63
2022-12-26T03:44:02.896Z,1.65
2022-12-26T03:47:09.412Z,1.77
2022-12-26T03:49:45.104Z,1.76
2022-12-26T03:52:20.853Z,1.75
2022-12-26T03:54:47.826Z,1.87
2022-12-26T03:57:21.656Z,1.84
2022-12-26T04:00:12.677Z,1.78
2022-12-26T04:02:41.471Z,1.78
2022-12-26T04:05:11.345Z,1.71
2022-12-26T04:07:56.580Z,1.71
2022-12-26T04:10:33.493Z,1.68
2022-12-26T04:13:03.813Z,1.58
2022-12-26T04:15:48.460Z,1.67
2022-12-26T04:18:19.511Z,1.61
2022-12-26T04:21:02.784Z,1.62
2022-12-26T04:23:44.387Z,1.63
2022-12-26T04:26:22.577Z,1.63
2022-12-26T04:28:49.609Z,1.55
2022-12-26T04:31:50.438Z,1.65
2022-12-26T04:34:32.649Z,1.61
2022-12-26T04:37:03.919Z,1.67
2022-12-26T04:39:35.144Z,1.74
2022-12-26T04:42:02.663Z,1.66
2022-12-26T04:44:30.861Z,1.78
2022-12-26T04:46:57.822Z,1.81
2022-12-26T04:49:24.772Z,1.77
2022-12-26T04:51:52.382Z,1.82
2022-12-26T04:54:19.497Z,1.88
2022-12-26T04:56:46.483Z,1.94
2022-12-26T04:59:13.770Z,1.88
2022-12-26T05:01:40.835Z,1.89
2022-12-26T05:04:13.541Z,1.85
2022-12-26T05:06:40.416Z,1.86
2022-12-26T05:09:11.029Z,1.80
2022-12-26T05:11:38.217Z,1.84
2022-12-26T05:14:04.992Z,1.93
2022-12-26T05:16:31.895Z,2.01
2022-12-26T05:18:58.732Z,1.99
2022-12-26T05:21:25.658Z,1.92
2022-12-26T05:23:52.515Z,1.88
2022-12-26T05:26:23.521Z,1.90
2022-12-26T05:28:57.373Z,1.94
2022-12-26T05:31:26.268Z,1.69
2022-12-26T05:33:55.419Z,1.48
2022-12-26T05:36:25.262Z,1.14
2022-12-26T05:38:52.116Z,1.10
2022-12-26T05:41:19.658Z,1.16
2022-12-26T05:43:55.878Z,1.39
2022-12-26T05:46:22.882Z,1.60
2022-12-26T05:48:49.723Z,1.78
2022-12-26T05:51:16.727Z,2.01
2022-12-26T05:53:43.697Z,2.12
2022-12-26T05:56:15.789Z,2.05
2022-12-26T05:58:43.471Z,2.16
2022-12-26T06:01:13.590Z,2.26
2022-12-26T06:03:55.124Z,1.64
2022-12-26T06:06:23.754Z,1.21
2022-12-26T06:08:53.006Z,0.78
2022-12-26T06:11:20.750Z,0.60
2022-12-26T06:13:48.890Z,0.56
2022-12-26T06:16:18.276Z,0.47
2022-12-26T06:18:45.930Z,0.36
2022-12-26T06:21:18.553Z,0.30
2022-12-26T06:23:45.659Z,0.31
2022-12-26T06:26:13.253Z,0.51
2022-12-26T06:28:42.144Z,0.63
2022-12-26T06:31:15.566Z,0.65
2022-12-26T06:33:42.709Z,0.66
2022-12-26T06:36:15.844Z,0.66
2022-12-26T06:38:43.635Z,0.67
2022-12-26T06:41:13.734Z,0.70
2022-12-26T06:43:40.929Z,0.76
2022-12-26T06:46:10.244Z,0.76
2022-12-26T06:48:37.155Z,0.78
2022-12-26T06:51:05.945Z,0.77
2022-12-26T06:53:34.422Z,0.81
2022-12-26T06:56:14.109Z,0.88
2022-12-26T06:58:41.895Z,0.92
2022-12-26T07:01:14.384Z,0.98
2022-12-26T07:03:48.571Z,1.03
2022-12-26T07:06:23.731Z,1.04
2022-12-26T07:08:51.671Z,1.03
2022-12-26T07:11:21.528Z,1.01
2022-12-26T07:13:48.485Z,1.09
2022-12-26T07:16:15.454Z,1.13
2022-12-26T07:18:43.124Z,1.14
2022-12-26T07:21:13.316Z,1.16
2022-12-26T07:23:40.613Z,1.21
2022-12-26T07:26:08.091Z,1.27
2022-12-26T07:28:35.628Z,1.31
2022-12-26T07:31:03.374Z,1.36
2022-12-26T07:33:30.695Z,1.35
2022-12-26T07:36:01.578Z,1.38
2022-12-26T07:38:28.474Z,1.43
2022-12-26T07:40:58.954Z,1.44
2022-12-26T07:43:26.397Z,1.45
2022-12-26T07:45:53.395Z,1.52
2022-12-26T07:48:20.455Z,1.58
2022-12-26T07:50:47.460Z,1.58
2022-12-26T07:53:15.341Z,1.61
2022-12-26T07:55:42.256Z,1.61
2022-12-26T07:58:09.236Z,1.60
2022-12-26T08:00:36.201Z,1.73
2022-12-26T08:03:07.438Z,1.94
2022-12-26T08:05:35.233Z,2.03
2022-12-26T08:08:02.345Z,2.10
2022-12-26T08:10:29.401Z,2.08
2022-12-26T08:12:56.412Z,2.07
2022-12-26T08:15:23.299Z,2.17
2022-12-26T08:17:50.205Z,2.32
2022-12-26T08:20:17.144Z,2.46
2022-12-26T08:22:44.054Z,2.52
2022-12-26T08:25:11.922Z,2.70
2022-12-26T08:27:40.293Z,2.79
2022-12-26T08:30:08.176Z,2.73
2022-12-26T08:32:36.206Z,2.81
2022-12-26T08:35:05.784Z,2.71
2022-12-26T08:37:32.985Z,2.60
2022-12-26T08:40:00.044Z,2.50
2022-12-26T08:42:27.004Z,2.63
2022-12-26T08:44:54.346Z,2.76
2022-12-26T08:47:21.409Z,2.87
2022-12-26T08:49:48.345Z,2.99
2022-12-26T08:52:15.196Z,2.90
2022-12-26T08:54:42.232Z,2.79
2022-12-26T08:57:09.256Z,2.69
2022-12-26T08:59:36.257Z,2.81
2022-12-26T09:02:03.379Z,2.92
2022-12-26T09:04:30.555Z,3.01
2022-12-26T09:06:57.454Z,2.94
2022-12-26T09:09:24.433Z,2.98
2022-12-26T09:11:51.468Z,3.06
2022-12-26T09:14:18.421Z,3.12
2022-12-26T09:16:50.117Z,2.95
2022-12-26T09:19:19.243Z,3.03
2022-12-26T09:21:47.680Z,3.23
2022-12-26T09:24:17.986Z,3.30
2022-12-26T09:26:45.539Z,3.33
2022-12-26T09:29:13.926Z,3.41
2022-12-26T09:31:40.885Z,3.41
2022-12-26T09:34:08.638Z,3.48
2022-12-26T09:36:37.849Z,3.24
2022-12-26T09:39:05.747Z,3.27
2022-12-26T09:41:32.619Z,3.42
2022-12-26T09:44:22.155Z,3.61
2022-12-26T09:47:08.092Z,3.79
2022-12-26T09:49:37.692Z,3.93
2022-12-26T09:52:15.929Z,3.99
2022-12-26T09:54:53.215Z,3.65
2022-12-26T09:57:44.222Z,3.82
2022-12-26T10:00:18.802Z,3.82
2022-12-26T10:02:52.099Z,3.79
2022-12-26T10:05:25.204Z,3.54
2022-12-26T10:08:13.380Z,3.65
2022-12-26T10:10:53.537Z,3.85
2022-12-26T10:13:26.323Z,4.16
2022-12-26T10:16:32.337Z,4.27
2022-12-26T10:19:01.982Z,4.43
2022-12-26T10:21:31.900Z,4.39
2022-12-26T10:24:04.841Z,4.37
2022-12-26T10:26:36.727Z,4.51
2022-12-26T10:29:09.745Z,4.64
2022-12-26T10:31:45.785Z,4.66
2022-12-26T10:34:36.983Z,4.53
2022-12-26T10:37:25.030Z,4.73
2022-12-26T10:40:09.995Z,4.82
2022-12-26T10:42:50.850Z,4.75
2022-12-26T10:45:36.746Z,4.71
2022-12-26T10:48:04.461Z,4.77
2022-12-26T10:50:33.643Z,4.74
2022-12-26T10:53:03.777Z,4.81
2022-12-26T10:55:34.550Z,4.74
2022-12-26T10:58:18.086Z,4.84
2022-12-26T11:00:45.447Z,4.89
2022-12-26T11:03:15.253Z,4.81
2022-12-26T11:08:49.263Z,4.53
2022-12-26T11:11:34.299Z,4.77
2022-12-26T11:14:03.107Z,4.69
2022-12-26T11:16:35.305Z,4.68
2022-12-26T11:19:03.279Z,4.67
2022-12-26T11:21:32.422Z,4.80
2022-12-26T11:24:08.325Z,4.78
2022-12-26T11:26:36.607Z,4.74
2022-12-26T11:29:21.825Z,4.68
2022-12-26T11:32:02.041Z,4.89
2022-12-26T11:34:34.185Z,4.84
2022-12-26T11:37:01.962Z,4.97
2022-12-26T11:39:33.449Z,5.30
2022-12-26T11:42:00.697Z,5.49
2022-12-26T11:44:37.288Z,5.68
2022-12-26T11:47:16.225Z,5.53
2022-12-26T11:49:49.193Z,5.35
2022-12-26T11:52:40.088Z,4.94
2022-12-26T11:55:36.220Z,4.74
2022-12-26T11:58:18.212Z,4.89
2022-12-26T12:00:51.293Z,4.77
2022-12-26T12:03:48.671Z,4.80
2022-12-26T12:06:31.034Z,4.83
2022-12-26T12:09:19.338Z,4.97
2022-12-26T12:11:55.182Z,5.13
2022-12-26T12:14:38.100Z,5.22
2022-12-26T12:17:26.589Z,4.99
2022-12-26T12:20:23.529Z,4.77
2022-12-26T12:23:05.674Z,4.69
2022-12-26T12:25:40.251Z,4.70
2022-12-26T12:28:18.898Z,4.84
2022-12-26T12:31:03.764Z,4.95
2022-12-26T12:33:48.848Z,4.73
2022-12-26T12:36:31.719Z,4.80
2022-12-26T12:39:10.539Z,4.21
2022-12-26T12:41:52.650Z,4.37
2022-12-26T12:44:29.534Z,4.62
2022-12-26T12:47:35.081Z,4.72
2022-12-26T12:50:20.286Z,4.76
2022-12-26T12:52:55.940Z,4.70
2022-12-26T12:55:43.037Z,4.71
2022-12-26T12:58:18.907Z,4.75
2022-12-26T13:00:52.755Z,4.79
2022-12-26T13:03:29.279Z,4.77
2022-12-26T13:06:11.230Z,4.77
2022-12-26T13:08:48.651Z,4.71
2022-12-26T13:11:33.171Z,4.66
2022-12-26T13:14:24.471Z,4.70
2022-12-26T13:17:11.722Z,4.79
2022-12-26T13:20:26.789Z,4.76
2022-12-26T13:22:59.796Z,4.68
2022-12-26T13:25:34.851Z,4.66
2022-12-26T13:28:09.160Z,4.69
2022-12-26T13:30:38.130Z,4.56
2022-12-26T13:33:06.019Z,4.54
2022-12-26T13:35:53.743Z,4.55
2022-12-26T13:38:22.771Z,4.58
2022-12-26T13:40:57.323Z,4.45
2022-12-26T13:43:25.551Z,4.56
2022-12-26T13:45:58.592Z,4.50
2022-12-26T13:48:28.550Z,4.44
2022-12-26T13:50:57.970Z,4.30
2022-12-26T13:53:24.798Z,4.14
2022-12-26T13:55:55.815Z,3.99
2022-12-26T13:58:44.133Z,3.90
2022-12-26T14:01:39.180Z,3.83
2022-12-26T14:04:18.151Z,3.73
2022-12-26T14:07:11.388Z,3.67
2022-12-26T14:10:04.945Z,3.66
2022-12-26T14:12:49.590Z,3.60
2022-12-26T14:15:48.820Z,3.55
2022-12-26T14:18:38.280Z,3.46
2022-12-26T14:21:14.004Z,3.36
2022-12-26T14:23:57.799Z,3.30
2022-12-26T14:26:49.968Z,3.22
2022-12-26T14:29:34.837Z,3.13
2022-12-26T14:32:10.647Z,3.07
2022-12-26T14:34:58.638Z,3.01
2022-12-26T14:37:47.086Z,2.92
2022-12-26T14:40:31.656Z,2.90
2022-12-26T14:43:14.228Z,2.89
2022-12-26T14:46:02.212Z,2.84
2022-12-26T14:48:29.054Z,2.82
2022-12-26T14:51:05.306Z,2.81
2022-12-26T14:53:35.792Z,2.83
2022-12-26T14:56:09.931Z,2.83
2022-12-26T14:58:42.653Z,2.78
2022-12-26T15:01:09.752Z,2.75
2022-12-26T15:03:58.417Z,2.73
2022-12-26T15:07:20.607Z,2.67
2022-12-26T15:10:35.863Z,2.67
2022-12-26T15:13:18.160Z,2.61
2022-12-26T15:16:03.680Z,2.52
2022-12-26T15:19:05.808Z,2.55
2022-12-26T15:21:50.784Z,2.51
2022-12-26T15:25:20.860Z,2.45
2022-12-26T15:27:48.045Z,2.47
2022-12-26T15:30:17.377Z,2.49
2022-12-26T15:32:54.243Z,2.47
2022-12-26T15:35:43.803Z,2.51
2022-12-26T15:38:29.269Z,2.49
2022-12-26T15:41:13.854Z,2.47
2022-12-26T15:44:09.700Z,2.50
2022-12-26T15:46:43.714Z,2.42
2022-12-26T15:49:46.165Z,2.39
2022-12-26T15:52:28.037Z,2.33
2022-12-26T15:55:12.948Z,2.21
2022-12-26T15:58:01.255Z,2.31
2022-12-26T16:00:36.233Z,2.29
2022-12-26T16:03:21.507Z,2.20
2022-12-26T16:05:54.078Z,2.19
2022-12-26T16:08:55.023Z,2.21
2022-12-26T16:11:26.343Z,2.18
2022-12-26T16:14:02.723Z,2.15
2022-12-26T16:16:33.345Z,2.17
2022-12-26T16:19:16.531Z,2.07
2022-12-26T16:21:48.020Z,2.10
2022-12-26T16:24:22.549Z,2.07
2022-12-26T16:26:49.732Z,2.04
2022-12-26T16:29:20.527Z,2.04
2022-12-26T16:31:47.881Z,2.08
2022-12-26T16:34:18.426Z,2.05
2022-12-26T16:36:45.803Z,1.96
2022-12-26T16:39:13.345Z,1.95
2022-12-26T16:42:03.887Z,1.90
2022-12-26T16:44:40.784Z,1.82
2022-12-26T16:47:13.135Z,1.83
2022-12-26T16:49:41.013Z,1.80
2022-12-26T16:52:07.979Z,1.77
2022-12-26T16:54:40.421Z,1.73
2022-12-26T16:57:19.381Z,1.78
2022-12-26T16:59:52.348Z,1.77
2022-12-26T17:02:34.521Z,1.76
2022-12-26T17:05:16.108Z,1.72
2022-12-26T17:07:45.529Z,1.73
2022-12-26T17:10:23.207Z,1.71
2022-12-26T17:12:51.182Z,1.69
2022-12-26T17:15:25.704Z,1.75
2022-12-26T17:17:52.671Z,1.70
2022-12-26T17:20:22.580Z,1.76
2022-12-26T17:22:54.454Z,1.79
2022-12-26T17:25:32.011Z,1.73
2022-12-26T17:28:19.022Z,1.71
2022-12-26T17:30:47.927Z,1.64
2022-12-26T17:33:22.788Z,1.62
2022-12-26T17:38:40.654Z,1.59
2022-12-26T17:41:09.409Z,1.52
2022-12-26T17:43:38.989Z,1.59
2022-12-26T17:46:08.023Z,1.58
2022-12-26T17:48:35.542Z,1.61
2022-12-26T17:51:05.207Z,1.66
2022-12-26T17:53:35.807Z,1.66
2022-12-26T17:56:10.832Z,1.64
2022-12-26T17:58:38.896Z,1.62
2022-12-26T18:01:05.810Z,1.64
2022-12-26T18:03:32.887Z,1.60
2022-12-26T18:05:59.831Z,1.71
2022-12-26T18:08:29.274Z,1.50
2022-12-26T18:10:56.610Z,1.42
2022-12-26T18:13:24.107Z,1.68
2022-12-26T18:15:52.697Z,1.82
2022-12-26T18:18:29.880Z,1.87
2022-12-26T18:20:56.765Z,1.91
2022-12-26T18:23:24.035Z,1.97
2022-12-26T18:25:54.533Z,1.72
2022-12-26T18:28:23.906Z,1.66
2022-12-26T18:30:50.869Z,1.32
2022-12-26T18:33:17.774Z,1.57
2022-12-26T18:35:45.491Z,1.64
2022-12-26T18:38:18.241Z,1.76
2022-12-26T18:40:48.027Z,1.85
2022-12-26T18:43:15.217Z,1.94
2022-12-26T18:45:43.036Z,2.06
2022-12-26T18:48:14.022Z,2.14
2022-12-26T18:50:41.636Z,2.09
2022-12-26T18:53:08.683Z,2.02
2022-12-26T18:55:35.716Z,1.98
2022-12-26T18:58:02.832Z,2.00
2022-12-26T19:00:29.771Z,2.01
2022-12-26T19:02:56.840Z,1.82
2022-12-26T19:05:29.231Z,1.82
2022-12-26T19:07:56.508Z,1.82
2022-12-26T19:10:30.255Z,1.98
2022-12-26T19:13:04.624Z,1.97
2022-12-26T19:15:33.563Z,1.98
2022-12-26T19:18:01.039Z,1.97
2022-12-26T19:20:28.893Z,1.97
2022-12-26T19:22:56.242Z,1.93
2022-12-26T19:25:24.826Z,1.86
2022-12-26T19:27:52.091Z,1.85
2022-12-26T19:30:23.225Z,1.89
2022-12-26T19:32:50.805Z,1.90
2022-12-26T19:35:18.759Z,1.76
2022-12-26T19:37:45.784Z,1.60
2022-12-26T19:40:14.295Z,1.61
2022-12-26T19:42:42.473Z,1.67
2022-12-26T19:45:11.238Z,1.77
2022-12-26T19:47:38.106Z,1.81
2022-12-26T19:50:06.901Z,1.84
2022-12-26T19:52:34.371Z,1.89
2022-12-26T19:55:01.334Z,1.86
2022-12-26T19:57:28.263Z,1.83
2022-12-26T19:59:55.208Z,1.77
2022-12-26T20:02:22.187Z,1.85
2022-12-26T20:04:49.276Z,1.67
2022-12-26T20:07:16.191Z,1.35
2022-12-26T20:09:43.144Z,1.39
2022-12-26T20:12:10.195Z,1.39
2022-12-26T20:14:37.275Z,1.54
2022-12-26T20:17:08.247Z,1.12
2022-12-26T20:19:36.474Z,0.85
2022-12-26T20:22:04.862Z,1.10
2022-12-26T20:24:31.990Z,1.10
2022-12-26T20:26:59.004Z,1.16
2022-12-26T20:29:26.027Z,1.23
2022-12-26T20:31:52.979Z,1.29
2022-12-26T20:34:19.903Z,1.32
2022-12-26T20:36:46.974Z,1.39
2022-12-26T20:39:16.906Z,1.46
2022-12-26T20:41:44.049Z,1.47
2022-12-26T20:44:13.363Z,1.50
2022-12-26T20:46:42.319Z,1.53
2022-12-26T20:49:09.772Z,1.47
2022-12-26T20:51:38.516Z,1.50
2022-12-26T20:54:10.189Z,1.56
2022-12-26T20:56:38.722Z,1.45
2022-12-26T20:59:06.971Z,1.42
2022-12-26T21:01:34.508Z,1.42
2022-12-26T21:04:01.807Z,1.51
2022-12-26T21:06:33.269Z,1.54
2022-12-26T21:09:00.387Z,1.54
2022-12-26T21:11:30.536Z,1.57
2022-12-26T21:14:01.206Z,1.59
2022-12-26T21:16:38.226Z,1.57
2022-12-26T21:19:10.685Z,1.49
2022-12-26T21:21:42.888Z,1.04
2022-12-26T21:24:28.291Z,0.42
2022-12-26T21:26:56.463Z,0.23
2022-12-26T21:29:29.719Z,0.28
2022-12-26T21:31:57.265Z,0.33
2022-12-26T21:34:26.189Z,0.45
2022-12-26T21:36:53.714Z,0.39
2022-12-26T21:39:20.653Z,0.17
2022-12-26T21:41:47.482Z,0.26
2022-12-26T21:44:14.341Z,0.33
2022-12-26T21:46:41.117Z,0.18
2022-12-26T21:49:08.132Z,0.17
2022-12-26T21:51:35.118Z,0.42
2022-12-26T21:54:02.038Z,0.30
2022-12-26T21:56:28.900Z,0.38
2022-12-26T21:58:55.951Z,0.47
2022-12-26T22:01:25.463Z,0.56
2022-12-26T22:03:53.089Z,0.00
2022-12-26T22:06:19.957Z,0.26
2022-12-26T22:08:46.778Z,0.38
2022-12-26T22:11:17.835Z,0.46
2022-12-26T22:13:44.748Z,0.59
2022-12-26T22:16:13.064Z,0.72
2022-12-26T22:18:41.494Z,0.14
2022-12-26T22:21:12.781Z,-0.06
2022-12-26T22:23:40.967Z,0.22
2022-12-26T22:26:09.347Z,0.05
2022-12-26T22:28:36.389Z,-1.05
2022-12-26T22:31:03.505Z,-1.15
2022-12-26T22:33:31.259Z,-0.78
2022-12-26T22:36:09.163Z,-0.47
2022-12-26T22:38:38.089Z,-0.38
2022-12-26T22:41:06.163Z,-0.14
2022-12-26T22:43:33.310Z,-0.33
2022-12-26T22:46:00.364Z,-0.11
2022-12-26T22:48:27.341Z,0.07
2022-12-26T22:50:55.645Z,0.18
2022-12-26T22:53:24.802Z,0.25
2022-12-26T22:55:56.712Z,0.26
2022-12-26T22:58:23.646Z,-0.37
2022-12-26T23:00:50.587Z,-0.21
2022-12-26T23:03:18.173Z,-0.09
2022-12-26T23:05:45.861Z,-0.01
2022-12-26T23:08:25.227Z,0.09
2022-12-26T23:10:54.455Z,0.04
2022-12-26T23:13:21.784Z,0.09
2022-12-26T23:16:00.329Z,0.06
2022-12-26T23:18:45.763Z,-0.19
2022-12-26T23:21:27.212Z,-0.10
2022-12-26T23:23:54.075Z,0.04
2022-12-26T23:26:21.074Z,0.19
2022-12-26T23:28:48.151Z,0.29
2022-12-26T23:31:15.409Z,0.38
2022-12-26T23:33:42.292Z,0.40
2022-12-26T23:36:09.498Z,0.46
2022-12-26T23:38:36.330Z,0.55
2022-12-26T23:41:03.493Z,0.59
2022-12-26T23:43:30.447Z,0.43
2022-12-26T23:45:57.371Z,0.44
2022-12-26T23:48:24.215Z,0.49
2022-12-26T23:50:51.203Z,0.62
2022-12-26T23:53:18.111Z,0.73
2022-12-26T23:55:44.885Z,0.66
2022-12-26T23:58:11.787Z,0.76
